Time;durP1;ratioP1;P1;durP2;ratioP2;P2;SDS_P1;SDS_P2;PMS_P1;PMS_P2;Temp;Humidity;BMP_temperature;BMP_pressure;BME280_temperature;BME280_humidity;BME280_pressure;Samples;Min_cycle;Max_cycle;Signal;HPM_P1;HPM_P2
2023/02/24 00:01:50;;;;;;;14.60;3.92;;;;;;;;;;5027966;28;20033;-73
2023/02/24 00:04:16;;;;;;;8.15;3.70;;;;;;;;;;5014991;28;20053;-74
2023/02/24 00:06:42;;;;;;;11.05;4.25;;;;;;;;;;5010766;28;20046;-73
2023/02/24 00:09:19;;;;;;;12.10;4.03;;;;;;;;;;5013607;28;20029;-73
2023/02/24 00:11:52;;;;;;;9.55;3.20;;;;;;;;;;5025294;28;20025;-73
2023/02/24 00:14:20;;;;;;;4.07;2.67;;;;;;;;;;5030108;28;20394;-73
2023/02/24 00:16:46;;;;;;;7.38;3.72;;;;;;;;;;5006468;28;20153;-73
2023/02/24 00:19:17;;;;;;;14.77;3.85;;;;;;;;;;5014756;28;20056;-73
2023/02/24 00:21:43;;;;;;;8.30;3.85;;;;;;;;;;5013300;28;20041;-73
2023/02/24 00:24:10;;;;;;;8.25;3.35;;;;;;;;;;5030143;28;20025;-73
2023/02/24 00:26:35;;;;;;;8.45;3.15;;;;;;;;;;5029760;28;20124;-73
2023/02/24 00:29:04;;;;;;;15.00;4.95;;;;;;;;;;5013592;28;20101;-73
2023/02/24 00:31:29;;;;;;;6.43;3.03;;;;;;;;;;5013634;28;20024;-73
2023/02/24 00:33:57;;;;;;;14.85;4.63;;;;;;;;;;5013817;28;20046;-73
2023/02/24 00:36:23;;;;;;;15.63;4.90;;;;;;;;;;5011703;28;20117;-73
2023/02/24 00:38:56;;;;;;;7.25;3.47;;;;;;;;;;5010636;28;20136;-73
2023/02/24 00:41:28;;;;;;;11.05;3.30;;;;;;;;;;5027015;28;20096;-74
2023/02/24 00:43:55;;;;;;;11.65;3.53;;;;;;;;;;5013215;28;20033;-72
2023/02/24 00:46:24;;;;;;;7.63;4.03;;;;;;;;;;5013193;28;20046;-73
2023/02/24 00:48:53;;;;;;;14.25;4.07;;;;;;;;;;5011590;28;20034;-74
2023/02/24 00:51:25;;;;;;;13.05;4.38;;;;;;;;;;5002640;28;20086;-73
2023/02/24 00:53:56;;;;;;;11.25;3.88;;;;;;;;;;5002466;28;20413;-73
2023/02/24 00:56:23;;;;;;;10.27;3.30;;;;;;;;;;5013222;28;20026;-73
2023/02/24 00:58:49;;;;;;;14.80;3.80;;;;;;;;;;5013262;28;20096;-73
2023/02/24 01:01:16;;;;;;;15.13;3.65;;;;;;;;;;5014223;28;20393;-72
2023/02/24 01:03:43;;;;;;;7.45;3.03;;;;;;;;;;5013849;28;20033;-73
2023/02/24 01:06:10;;;;;;;4.38;2.50;;;;;;;;;;5029346;28;20061;-73
2023/02/24 01:08:41;;;;;;;10.45;2.90;;;;;;;;;;5013228;28;20049;-73
2023/02/24 01:13:51;;;;;;;9.95;4.22;;;;;;;;;;5013750;28;20115;-73
2023/02/24 01:16:17;;;;;;;10.98;2.80;;;;;;;;;;5013639;28;20116;-73
2023/02/24 01:18:46;;;;;;;6.97;2.80;;;;;;;;;;5005830;28;20172;-73
2023/02/24 01:21:13;;;;;;;7.50;2.92;;;;;;;;;;5007173;28;20474;-73
2023/02/24 01:23:41;;;;;;;11.23;2.67;;;;;;;;;;5013288;28;20117;-73
2023/02/24 01:26:07;;;;;;;12.50;2.28;;;;;;;;;;5013823;28;20042;-73
2023/02/24 01:28:32;;;;;;;11.25;3.05;;;;;;;;;;5014277;28;20071;-72
2023/02/24 01:31:01;;;;;;;9.73;2.72;;;;;;;;;;5013384;28;20042;-73
2023/02/24 01:33:28;;;;;;;7.97;3.28;;;;;;;;;;5012346;28;20034;-73
2023/02/24 01:35:54;;;;;;;6.05;3.72;;;;;;;;;;5028354;28;20049;-72
2023/02/24 01:38:23;;;;;;;9.65;3.53;;;;;;;;;;5013401;28;20041;-72
2023/02/24 01:40:57;;;;;;;9.52;3.30;;;;;;;;;;5012832;28;20038;-73
2023/02/24 01:43:22;;;;;;;7.63;3.47;;;;;;;;;;5012130;28;20121;-73
2023/02/24 01:45:50;;;;;;;9.18;3.55;;;;;;;;;;5004344;28;20235;-73
2023/02/24 01:48:16;;;;;;;17.35;3.70;;;;;;;;;;5001329;28;20034;-75
2023/02/24 01:50:42;;;;;;;11.93;3.58;;;;;;;;;;5012366;28;20468;-74
2023/02/24 01:53:07;;;;;;;16.08;3.50;;;;;;;;;;5011738;28;20038;-73
2023/02/24 01:55:39;;;;;;;14.93;4.03;;;;;;;;;;5012331;28;20033;-77
2023/02/24 01:58:10;;;;;;;9.95;3.33;;;;;;;;;;5026996;28;20069;-73
2023/02/24 02:00:36;;;;;;;10.27;3.45;;;;;;;;;;5003927;28;20073;-74
2023/02/24 02:03:10;;;;;;;14.18;3.95;;;;;;;;;;5008092;28;20120;-73
2023/02/24 02:05:38;;;;;;;7.28;3.35;;;;;;;;;;5023000;28;20489;-74
2023/02/24 02:08:03;;;;;;;19.02;3.45;;;;;;;;;;5012614;28;20470;-74
2023/02/24 02:10:29;;;;;;;7.88;3.20;;;;;;;;;;5012612;28;20026;-73
2023/02/24 02:12:54;;;;;;;5.82;3.03;;;;;;;;;;4997891;28;20041;-73
2023/02/24 02:15:20;;;;;;;13.05;3.22;;;;;;;;;;5012070;28;20419;-73
2023/02/24 02:18:27;;;;;;;6.15;3.10;;;;;;;;;;5032379;28;20397;-73
2023/02/24 02:20:55;;;;;;;17.25;4.57;;;;;;;;;;5030462;28;20390;-73
2023/02/24 02:23:39;;;;;;;14.55;3.13;;;;;;;;;;5017019;28;20115;-73
2023/02/24 02:26:26;;;;;;;12.88;2.60;;;;;;;;;;5016213;28;20049;-73
2023/02/24 02:29:02;;;;;;;11.18;3.63;;;;;;;;;;5016979;28;20066;-73
2023/02/24 02:31:54;;;;;;;12.55;3.97;;;;;;;;;;5016918;28;20064;-72
2023/02/24 02:34:38;;;;;;;6.15;2.17;;;;;;;;;;5000393;28;20030;-74
2023/02/24 02:37:13;;;;;;;9.93;2.95;;;;;;;;;;5012256;28;20045;-73
2023/02/24 02:39:50;;;;;;;5.72;2.38;;;;;;;;;;5010443;28;20030;-74
2023/02/24 02:42:52;;;;;;;9.63;3.10;;;;;;;;;;5016829;28;20042;-73
2023/02/24 02:45:46;;;;;;;5.80;2.63;;;;;;;;;;5001881;28;20029;-72
2023/02/24 02:48:19;;;;;;;13.27;3.33;;;;;;;;;;5016700;28;20120;-73
2023/02/24 02:50:54;;;;;;;14.85;2.65;;;;;;;;;;5014856;28;20055;-73
2023/02/24 02:53:19;;;;;;;6.50;2.60;;;;;;;;;;5014754;28;20045;-73
2023/02/24 02:55:55;;;;;;;6.53;2.67;;;;;;;;;;5016404;28;20030;-73
2023/02/24 02:58:26;;;;;;;12.23;3.30;;;;;;;;;;5015255;28;20030;-73
2023/02/24 03:01:01;;;;;;;7.63;3.22;;;;;;;;;;5014809;28;20029;-73
2023/02/24 03:03:41;;;;;;;5.82;2.42;;;;;;;;;;5028806;28;20556;-73
2023/02/24 03:06:14;;;;;;;11.52;2.80;;;;;;;;;;5031027;28;20026;-73
2023/02/24 03:08:44;;;;;;;6.03;2.60;;;;;;;;;;5014597;28;20033;-74
2023/02/24 03:11:13;;;;;;;11.23;3.00;;;;;;;;;;5014637;28;20474;-73
2023/02/24 03:13:41;;;;;;;7.30;3.05;;;;;;;;;;5001921;28;20042;-73
2023/02/24 03:16:08;;;;;;;10.65;2.92;;;;;;;;;;5011940;28;20092;-73
2023/02/24 03:18:38;;;;;;;7.70;2.70;;;;;;;;;;5031575;28;20026;-73
2023/02/24 03:21:10;;;;;;;13.63;3.22;;;;;;;;;;5008321;28;20052;-73
2023/02/24 03:23:48;;;;;;;15.48;2.72;;;;;;;;;;5030495;28;20466;-73
2023/02/24 03:26:20;;;;;;;7.32;2.10;;;;;;;;;;5011122;28;20040;-73
2023/02/24 03:28:52;;;;;;;11.77;2.53;;;;;;;;;;5021787;28;20470;-73
2023/02/24 03:31:40;;;;;;;8.75;2.58;;;;;;;;;;5015758;28;20077;-73
2023/02/24 03:34:13;;;;;;;10.60;2.55;;;;;;;;;;5012403;28;20042;-73
2023/02/24 03:36:38;;;;;;;8.05;2.00;;;;;;;;;;5012423;28;20034;-74
2023/02/24 03:39:04;;;;;;;7.22;2.08;;;;;;;;;;5030692;28;20119;-73
2023/02/24 03:42:03;;;;;;;6.50;2.30;;;;;;;;;;5009890;28;20034;-73
2023/02/24 03:44:28;;;;;;;9.48;2.33;;;;;;;;;;5015179;28;20075;-73
2023/02/24 03:46:54;;;;;;;6.07;2.45;;;;;;;;;;5014478;28;20095;-73
2023/02/24 03:49:20;;;;;;;9.10;2.88;;;;;;;;;;5014751;28;20485;-73
2023/02/24 03:52:21;;;;;;;5.47;2.70;;;;;;;;;;5007781;28;20074;-73
2023/02/24 03:55:11;;;;;;;9.80;2.50;;;;;;;;;;5012084;28;20053;-74
2023/02/24 03:57:54;;;;;;;6.25;2.03;;;;;;;;;;5012948;28;20390;-75
2023/02/24 04:00:43;;;;;;;8.85;2.50;;;;;;;;;;5014839;28;20048;-73
2023/02/24 04:03:30;;;;;;;5.35;2.30;;;;;;;;;;5007625;28;20054;-73
2023/02/24 04:06:10;;;;;;;6.53;2.30;;;;;;;;;;5024500;28;20041;-73
2023/02/24 04:08:52;;;;;;;8.60;2.88;;;;;;;;;;5011573;28;20022;-73
2023/02/24 04:11:36;;;;;;;7.07;1.95;;;;;;;;;;5010326;28;20038;-73
2023/02/24 04:14:05;;;;;;;6.78;2.60;;;;;;;;;;5013436;28;20030;-73
2023/02/24 04:16:56;;;;;;;7.97;2.13;;;;;;;;;;5003884;28;20041;-77
2023/02/24 04:19:26;;;;;;;5.50;2.28;;;;;;;;;;5011051;28;20034;-73
2023/02/24 04:21:52;;;;;;;8.85;2.40;;;;;;;;;;5011317;28;20048;-73
2023/02/24 04:24:22;;;;;;;12.25;2.15;;;;;;;;;;5013314;28;20061;-73
2023/02/24 04:26:48;;;;;;;8.95;2.42;;;;;;;;;;5012291;28;20152;-73
2023/02/24 04:29:21;;;;;;;6.57;1.90;;;;;;;;;;5014489;28;20500;-73
2023/02/24 04:31:51;;;;;;;5.15;2.13;;;;;;;;;;5013225;28;20036;-73
2023/02/24 04:34:18;;;;;;;7.60;2.10;;;;;;;;;;5001551;28;20045;-75
2023/02/24 04:36:48;;;;;;;11.70;2.05;;;;;;;;;;5013208;28;20061;-75
2023/02/24 04:39:22;;;;;;;8.32;2.17;;;;;;;;;;5012301;28;20034;-72
2023/02/24 04:41:48;;;;;;;4.18;1.70;;;;;;;;;;5013023;28;20128;-73
2023/02/24 04:44:16;;;;;;;10.63;2.70;;;;;;;;;;5009850;28;20501;-73
2023/02/24 04:46:42;;;;;;;7.40;1.90;;;;;;;;;;5012336;28;20045;-73
2023/02/24 04:49:08;;;;;;;4.07;1.80;;;;;;;;;;5011701;28;20050;-73
2023/02/24 04:51:34;;;;;;;8.10;2.03;;;;;;;;;;5012030;28;20112;-73
2023/02/24 04:54:00;;;;;;;5.28;1.70;;;;;;;;;;5008778;28;20062;-73
2023/02/24 04:56:27;;;;;;;4.10;1.75;;;;;;;;;;5009554;28;20072;-73
2023/02/24 04:58:53;;;;;;;11.98;2.45;;;;;;;;;;5009941;28;20042;-73
2023/02/24 05:01:18;;;;;;;5.40;2.00;;;;;;;;;;5007051;28;20489;-73
2023/02/24 05:03:44;;;;;;;4.75;1.80;;;;;;;;;;5010565;28;20044;-73
2023/02/24 05:06:16;;;;;;;10.57;2.00;;;;;;;;;;5013688;28;20041;-73
2023/02/24 05:08:41;;;;;;;6.65;1.73;;;;;;;;;;5012495;28;20037;-74
2023/02/24 05:11:14;;;;;;;5.28;2.10;;;;;;;;;;5012578;28;20038;-73
2023/02/24 05:13:44;;;;;;;5.75;2.05;;;;;;;;;;5013731;28;20049;-75
2023/02/24 05:16:11;;;;;;;3.13;1.75;;;;;;;;;;5013714;28;20044;-73
2023/02/24 05:18:37;;;;;;;6.47;2.03;;;;;;;;;;5006005;28;20458;-73
2023/02/24 05:23:52;;;;;;;9.57;2.58;;;;;;;;;;5000700;28;20395;-73
2023/02/24 05:26:19;;;;;;;10.98;3.55;;;;;;;;;;5024975;28;20034;-73
2023/02/24 05:28:51;;;;;;;8.82;2.47;;;;;;;;;;5012334;28;20037;-73
2023/02/24 05:31:25;;;;;;;10.15;3.13;;;;;;;;;;5013462;28;20041;-73
2023/02/24 05:33:53;;;;;;;10.65;2.17;;;;;;;;;;5028677;28;20049;-73
2023/02/24 05:36:19;;;;;;;5.70;2.40;;;;;;;;;;5008847;28;20383;-72
2023/02/24 05:38:47;;;;;;;7.78;2.20;;;;;;;;;;5010409;28;20116;-73
2023/02/24 05:41:16;;;;;;;10.57;2.58;;;;;;;;;;5008718;28;20047;-72
2023/02/24 05:43:47;;;;;;;8.23;2.10;;;;;;;;;;5012687;28;20037;-73
2023/02/24 05:46:15;;;;;;;10.00;2.28;;;;;;;;;;5027497;28;20489;-73
2023/02/24 05:48:42;;;;;;;9.38;2.42;;;;;;;;;;5010294;28;20045;-74
2023/02/24 05:51:11;;;;;;;9.50;2.45;;;;;;;;;;5008776;28;20046;-73
2023/02/24 05:53:40;;;;;;;6.15;2.33;;;;;;;;;;5011664;28;20034;-73
2023/02/24 05:56:09;;;;;;;5.10;2.28;;;;;;;;;;5012154;28;20125;-73
2023/02/24 05:58:44;;;;;;;8.57;2.10;;;;;;;;;;5012657;28;20080;-73
2023/02/24 06:01:17;;;;;;;11.27;2.92;;;;;;;;;;5012142;28;20030;-73
2023/02/24 06:03:46;;;;;;;10.25;3.00;;;;;;;;;;5012155;28;20038;-73
2023/02/24 06:06:14;;;;;;;8.85;2.30;;;;;;;;;;5009449;28;20049;-73
2023/02/24 06:08:48;;;;;;;6.68;2.10;;;;;;;;;;5009005;28;20062;-73
2023/02/24 06:11:14;;;;;;;;;;;;;;;;;;5005712;28;20054;-73
2023/02/24 06:13:39;;;;;;;8.45;2.40;;;;;;;;;;5013640;28;19914;-72
2023/02/24 06:16:05;;;;;;;5.55;1.98;;;;;;;;;;5028170;28;20045;-73
2023/02/24 06:18:31;;;;;;;7.63;2.15;;;;;;;;;;5013468;28;20034;-73
2023/02/24 06:21:00;;;;;;;11.98;2.40;;;;;;;;;;5013195;28;20049;-73
2023/02/24 06:23:26;;;;;;;6.80;2.60;;;;;;;;;;5008396;28;20038;-73
2023/02/24 06:25:52;;;;;;;10.20;2.20;;;;;;;;;;4999645;28;20032;-76
2023/02/24 06:28:18;;;;;;;6.85;2.22;;;;;;;;;;5009091;28;20050;-73
2023/02/24 06:30:44;;;;;;;8.20;2.13;;;;;;;;;;5009774;28;20033;-73
2023/02/24 06:33:09;;;;;;;6.13;2.08;;;;;;;;;;5008800;28;20130;-73
2023/02/24 06:35:37;;;;;;;7.15;2.42;;;;;;;;;;5004683;28;20473;-73
2023/02/24 06:38:03;;;;;;;4.18;1.83;;;;;;;;;;5006025;28;20117;-73
2023/02/24 06:40:30;;;;;;;9.02;1.92;;;;;;;;;;5012901;28;20097;-73
2023/02/24 06:42:55;;;;;;;8.55;2.20;;;;;;;;;;5001855;28;20046;-73
2023/02/24 06:45:23;;;;;;;6.15;2.50;;;;;;;;;;5005624;28;20046;-74
2023/02/24 06:47:48;;;;;;;5.68;2.13;;;;;;;;;;5025439;28;20036;-73
2023/02/24 06:50:19;;;;;;;6.38;2.05;;;;;;;;;;5021806;28;20397;-73
2023/02/24 06:52:45;;;;;;;4.88;1.95;;;;;;;;;;5007054;28;20050;-73
2023/02/24 06:55:24;;;;;;;7.25;1.90;;;;;;;;;;5011092;28;20049;-73
2023/02/24 06:57:58;;;;;;;4.75;1.77;;;;;;;;;;5023474;28;20053;-74
2023/02/24 07:00:35;;;;;;;5.88;2.30;;;;;;;;;;5011929;28;20045;-73
2023/02/24 07:03:13;;;;;;;8.55;2.30;;;;;;;;;;5014884;28;20041;-73
2023/02/24 07:05:41;;;;;;;7.00;1.88;;;;;;;;;;5009875;28;20053;-73
2023/02/24 07:08:07;;;;;;;18.17;2.03;;;;;;;;;;5015472;28;20038;-74
2023/02/24 07:10:33;;;;;;;5.05;2.42;;;;;;;;;;5007517;28;20550;-74
2023/02/24 07:12:59;;;;;;;11.18;2.03;;;;;;;;;;4996896;28;20037;-74
2023/02/24 07:15:24;;;;;;;7.50;2.25;;;;;;;;;;5006638;28;20064;-74
2023/02/24 07:17:53;;;;;;;4.72;1.70;;;;;;;;;;5015008;28;20092;-75
2023/02/24 07:20:24;;;;;;;6.05;2.05;;;;;;;;;;5015501;28;20433;-74
2023/02/24 07:22:50;;;;;;;3.20;1.65;;;;;;;;;;5015827;28;20443;-75
2023/02/24 07:25:31;;;;;;;8.05;1.77;;;;;;;;;;5016296;28;20117;-74
2023/02/24 07:28:00;;;;;;;4.20;1.50;;;;;;;;;;5015606;28;20034;-74
2023/02/24 07:30:28;;;;;;;7.22;2.40;;;;;;;;;;5014262;28;20050;-74
2023/02/24 07:32:54;;;;;;;3.55;2.00;;;;;;;;;;5015629;28;20057;-74
2023/02/24 07:35:20;;;;;;;7.72;1.80;;;;;;;;;;5015500;28;20045;-73
2023/02/24 07:37:49;;;;;;;8.07;2.03;;;;;;;;;;5030261;28;20040;-73
2023/02/24 07:40:16;;;;;;;8.55;1.70;;;;;;;;;;5010459;28;20049;-73
2023/02/24 07:42:42;;;;;;;5.70;2.03;;;;;;;;;;5029453;28;20026;-74
2023/02/24 07:45:09;;;;;;;4.55;1.73;;;;;;;;;;5012488;28;20034;-74
2023/02/24 07:47:35;;;;;;;3.90;1.77;;;;;;;;;;5013972;28;20030;-74
2023/02/24 07:50:01;;;;;;;10.93;2.47;;;;;;;;;;5013482;28;20029;-74
2023/02/24 07:52:31;;;;;;;5.82;2.05;;;;;;;;;;5006599;28;20065;-73
2023/02/24 07:54:57;;;;;;;11.02;2.85;;;;;;;;;;5001220;28;20548;-74
2023/02/24 07:57:24;;;;;;;9.50;1.92;;;;;;;;;;5015305;28;20165;-75
2023/02/24 07:59:49;;;;;;;5.57;1.95;;;;;;;;;;5014472;28;20497;-74
2023/02/24 08:02:15;;;;;;;11.27;2.30;;;;;;;;;;5015086;28;20030;-74
2023/02/24 08:04:47;;;;;;;9.65;2.63;;;;;;;;;;5006863;28;20049;-74
2023/02/24 08:07:13;;;;;;;6.13;2.00;;;;;;;;;;5005130;28;20046;-74
2023/02/24 08:12:21;;;;;;;4.90;2.10;;;;;;;;;;5015124;28;20061;-74
2023/02/24 08:14:52;;;;;;;7.65;2.30;;;;;;;;;;5012498;28;20041;-73
2023/02/24 08:17:25;;;;;;;7.05;2.58;;;;;;;;;;5013522;28;20109;-74
2023/02/24 08:20:50;;;;;;;6.78;2.45;;;;;;;;;;5029355;28;20040;-74
2023/02/24 08:22:42;;;;;;;10.93;3.63;;;;;;;;;;4996162;28;20490;-74
2023/02/24 08:25:09;;;;;;;15.20;8.57;;;;;;;;;;5010268;28;20034;-74
2023/02/24 08:27:41;;;;;;;21.50;9.23;;;;;;;;;;5013058;28;20488;-74
2023/02/24 08:30:20;;;;;;;20.55;10.80;;;;;;;;;;5013646;28;20038;-73
2023/02/24 08:32:49;;;;;;;13.95;8.90;;;;;;;;;;5008184;28;20037;-74
2023/02/24 08:35:19;;;;;;;15.95;7.65;;;;;;;;;;5014593;28;20029;-74
2023/02/24 08:37:47;;;;;;;14.60;7.43;;;;;;;;;;5003480;28;20038;-74
2023/02/24 08:40:58;;;;;;;16.92;6.80;;;;;;;;;;5011815;28;20026;-73
2023/02/24 08:45:50;;;;;;;15.40;5.88;;;;;;;;;;5011859;28;20033;-76
2023/02/24 08:48:25;;;;;;;11.98;6.53;;;;;;;;;;5013345;28;20037;-75
2023/02/24 08:50:59;;;;;;;18.42;6.38;;;;;;;;;;5002065;28;20041;-79
2023/02/24 08:53:30;;;;;;;20.55;6.28;;;;;;;;;;5006868;28;20030;-74
2023/02/24 08:56:08;;;;;;;15.77;6.30;;;;;;;;;;5012450;28;20466;-74
2023/02/24 08:58:46;;;;;;;14.38;6.88;;;;;;;;;;5011135;28;20042;-74
2023/02/24 09:01:17;;;;;;;10.80;5.28;;;;;;;;;;5028488;28;20261;-74
2023/02/24 09:03:48;;;;;;;15.10;5.70;;;;;;;;;;5001549;28;20117;-74
2023/02/24 09:06:15;;;;;;;14.40;6.88;;;;;;;;;;5003149;28;20022;-74
2023/02/24 09:08:43;;;;;;;15.68;8.05;;;;;;;;;;4994136;28;20548;-75
2023/02/24 09:11:14;;;;;;;12.05;6.47;;;;;;;;;;5026995;28;20037;-75
2023/02/24 09:13:50;;;;;;;13.68;7.05;;;;;;;;;;5004188;28;20436;-76
2023/02/24 09:16:22;;;;;;;12.27;5.55;;;;;;;;;;4998880;28;20050;-75
2023/02/24 09:19:25;;;;;;;12.93;5.28;;;;;;;;;;5010963;28;20433;-76
2023/02/24 09:24:25;;;;;;;8.40;3.42;;;;;;;;;;5002164;28;20524;-74
2023/02/24 09:26:57;;;;;;;7.03;2.70;;;;;;;;;;5008886;28;20404;-74
2023/02/24 09:29:34;;;;;;;8.00;2.55;;;;;;;;;;5001899;28;20042;-74
2023/02/24 09:32:04;;;;;;;10.52;2.83;;;;;;;;;;5017698;28;20044;-75
2023/02/24 09:34:42;;;;;;;6.95;2.83;;;;;;;;;;5009208;28;20041;-75
2023/02/24 09:37:23;;;;;;;7.15;2.45;;;;;;;;;;5009370;28;20042;-75
2023/02/24 09:42:45;;;;;;;7.40;2.88;;;;;;;;;;5008169;28;20052;-75
2023/02/24 09:45:21;;;;;;;12.98;5.15;;;;;;;;;;5004602;28;20042;-76
2023/02/24 09:48:09;;;;;;;12.00;6.15;;;;;;;;;;4992001;28;20367;-75
2023/02/24 09:53:19;;;;;;;6.22;2.72;;;;;;;;;;5006387;28;20100;-75
2023/02/24 09:55:59;;;;;;;10.32;2.72;;;;;;;;;;5009621;28;20425;-79
2023/02/24 09:58:36;;;;;;;8.45;3.83;;;;;;;;;;5007627;28;20394;-75
2023/02/24 10:01:20;;;;;;;5.70;2.20;;;;;;;;;;5000158;28;20053;-75
2023/02/24 10:04:04;;;;;;;10.82;2.70;;;;;;;;;;5008987;28;20451;-75
2023/02/24 10:06:41;;;;;;;8.00;2.10;;;;;;;;;;4979776;28;20042;-75
2023/02/24 10:09:23;;;;;;;6.47;1.95;;;;;;;;;;5003000;28;20100;-74
2023/02/24 10:11:53;;;;;;;6.45;1.70;;;;;;;;;;4990723;28;20038;-75
2023/02/24 10:14:24;;;;;;;7.30;1.70;;;;;;;;;;5001067;28;20487;-75
2023/02/24 10:17:21;;;;;;;5.43;1.42;;;;;;;;;;4996500;28;20486;-75
2023/02/24 10:19:40;;;;;;;5.15;1.52;;;;;;;;;;4997536;28;20057;-75
2023/02/24 10:22:21;;;;;;;6.75;1.33;;;;;;;;;;5008263;28;20065;-75
2023/02/24 10:25:12;;;;;;;4.40;1.15;;;;;;;;;;5005284;28;20030;-75
2023/02/24 10:27:51;;;;;;;3.85;1.05;;;;;;;;;;4987071;28;20508;-74
2023/02/24 10:30:45;;;;;;;3.97;1.17;;;;;;;;;;4992333;28;20046;-75
2023/02/24 10:33:26;;;;;;;2.75;1.00;;;;;;;;;;4993488;28;20062;-75
2023/02/24 10:36:33;;;;;;;4.15;1.33;;;;;;;;;;5002642;28;20102;-75
2023/02/24 10:39:24;;;;;;;6.13;1.58;;;;;;;;;;5006492;28;20501;-75
2023/02/24 10:41:56;;;;;;;10.63;1.23;;;;;;;;;;5001554;28;20088;-76
2023/02/24 10:44:34;;;;;;;5.78;1.58;;;;;;;;;;5027650;28;20133;-75
2023/02/24 10:47:12;;;;;;;6.68;1.25;;;;;;;;;;5012767;28;20045;-75
2023/02/24 10:49:56;;;;;;;2.95;1.15;;;;;;;;;;5010532;28;20112;-75
2023/02/24 10:55:37;;;;;;;5.45;1.08;;;;;;;;;;5014169;28;19924;-76
2023/02/24 10:58:05;;;;;;;8.32;0.90;;;;;;;;;;5012178;28;20375;-76
2023/02/24 11:00:59;;;;;;;4.82;1.15;;;;;;;;;;5006341;28;20070;-75
2023/02/24 11:03:37;;;;;;;3.95;0.77;;;;;;;;;;5001126;28;20066;-76
2023/02/24 11:08:53;;;;;;;4.75;1.10;;;;;;;;;;5017203;28;20050;-76
2023/02/24 11:11:28;;;;;;;9.65;1.23;;;;;;;;;;4995998;28;20046;-76
2023/02/24 11:19:35;;;;;;;;;;;;;;;;;;4993067;28;20105;-75
2023/02/24 11:22:01;;;;;;;4.38;1.00;;;;;;;;;;5010837;28;20356;-75
2023/02/24 11:24:27;;;;;;;2.45;0.80;;;;;;;;;;4998733;28;20052;-76
2023/02/24 11:26:52;;;;;;;2.53;0.80;;;;;;;;;;5007367;28;20033;-75
2023/02/24 11:29:49;;;;;;;2.30;0.75;;;;;;;;;;5000618;28;20044;-75
2023/02/24 11:32:56;;;;;;;2.97;1.08;;;;;;;;;;5013780;28;20401;-76
2023/02/24 11:35:26;;;;;;;2.92;0.80;;;;;;;;;;4984714;28;20479;-75
2023/02/24 11:38:16;;;;;;;8.30;1.60;;;;;;;;;;5025189;28;20073;-79
2023/02/24 11:40:47;;;;;;;3.20;1.00;;;;;;;;;;5014648;28;20045;-75
2023/02/24 11:43:23;;;;;;;2.97;0.90;;;;;;;;;;5001626;28;20038;-75
2023/02/24 11:46:04;;;;;;;2.40;1.10;;;;;;;;;;5003509;28;20042;-75
2023/02/24 11:48:32;;;;;;;9.88;1.10;;;;;;;;;;5008028;28;20045;-75
2023/02/24 11:51:09;;;;;;;2.92;0.80;;;;;;;;;;5007484;28;20049;-75
2023/02/24 11:53:43;;;;;;;3.35;0.98;;;;;;;;;;5024486;28;20041;-78
2023/02/24 11:56:11;;;;;;;2.20;0.90;;;;;;;;;;5007729;28;20038;-78
2023/02/24 11:58:40;;;;;;;4.28;0.75;;;;;;;;;;5011020;28;20048;-76
2023/02/24 12:01:14;;;;;;;3.72;0.90;;;;;;;;;;5011741;28;20040;-75
2023/02/24 12:04:02;;;;;;;6.22;1.00;;;;;;;;;;5005398;28;20034;-76
2023/02/24 12:06:47;;;;;;;2.70;0.90;;;;;;;;;;5011203;28;20040;-75
2023/02/24 12:09:18;;;;;;;6.20;1.00;;;;;;;;;;5007416;28;20371;-75
2023/02/24 12:11:51;;;;;;;3.70;0.90;;;;;;;;;;5002577;28;20402;-76
2023/02/24 12:14:22;;;;;;;6.07;0.90;;;;;;;;;;5008637;28;20068;-75
2023/02/24 12:16:55;;;;;;;3.20;1.13;;;;;;;;;;5008488;28;20545;-76
2023/02/24 12:19:32;;;;;;;4.33;0.87;;;;;;;;;;5005425;28;20049;-75
2023/02/24 12:22:04;;;;;;;6.38;1.05;;;;;;;;;;4984628;28;20469;-77
2023/02/24 12:24:30;;;;;;;4.70;0.90;;;;;;;;;;5010480;28;20099;-76
2023/02/24 12:27:17;;;;;;;3.88;0.98;;;;;;;;;;5001454;28;20038;-75
2023/02/24 12:30:21;;;;;;;2.85;0.90;;;;;;;;;;5011010;28;20041;-76
2023/02/24 12:33:02;;;;;;;4.65;1.35;;;;;;;;;;5007348;28;20054;-76
2023/02/24 12:36:01;;;;;;;6.55;1.35;;;;;;;;;;4992315;28;20371;-75
2023/02/24 12:38:59;;;;;;;3.38;0.80;;;;;;;;;;5005132;28;20053;-75
2023/02/24 12:41:40;;;;;;;3.83;0.80;;;;;;;;;;5016234;28;20045;-75
2023/02/24 12:44:32;;;;;;;7.45;1.00;;;;;;;;;;5008935;28;20117;-75
2023/02/24 12:47:05;;;;;;;1.95;0.70;;;;;;;;;;4992786;28;20053;-76
2023/02/24 12:49:59;;;;;;;4.38;1.08;;;;;;;;;;5008143;28;20033;-77
2023/02/24 12:52:48;;;;;;;3.70;1.20;;;;;;;;;;5019575;28;20050;-76
2023/02/24 12:55:33;;;;;;;3.33;0.88;;;;;;;;;;5027109;28;20083;-75
2023/02/24 12:58:08;;;;;;;6.03;1.17;;;;;;;;;;4993823;28;20569;-75
2023/02/24 13:00:51;;;;;;;4.18;0.80;;;;;;;;;;5001723;28;20066;-76
2023/02/24 13:03:44;;;;;;;2.55;0.82;;;;;;;;;;5016807;28;20045;-75
2023/02/24 13:06:23;;;;;;;3.17;0.80;;;;;;;;;;5005342;28;20045;-75
2023/02/24 13:09:00;;;;;;;3.17;1.00;;;;;;;;;;5000694;28;20079;-75
2023/02/24 13:11:35;;;;;;;3.70;0.90;;;;;;;;;;4997013;28;20030;-75
2023/02/24 13:14:06;;;;;;;5.80;1.15;;;;;;;;;;5018907;28;20083;-75
2023/02/24 13:16:34;;;;;;;3.05;0.90;;;;;;;;;;4997680;28;20048;-75
2023/02/24 13:19:19;;;;;;;3.60;0.98;;;;;;;;;;5008141;28;20041;-76
2023/02/24 13:22:15;;;;;;;6.20;1.00;;;;;;;;;;4996246;28;20029;-76
2023/02/24 13:24:43;;;;;;;6.15;1.20;;;;;;;;;;4975450;28;20070;-77
2023/02/24 13:27:11;;;;;;;2.47;0.85;;;;;;;;;;5013091;28;20054;-75
2023/02/24 13:29:49;;;;;;;3.78;1.00;;;;;;;;;;4991245;28;20141;-76
2023/02/24 13:32:35;;;;;;;3.42;1.00;;;;;;;;;;5030275;28;20120;-76
2023/02/24 13:35:16;;;;;;;5.50;1.10;;;;;;;;;;5008094;28;20052;-75
2023/02/24 13:37:45;;;;;;;5.88;1.20;;;;;;;;;;4995538;28;20061;-76
2023/02/24 13:40:21;;;;;;;3.88;1.08;;;;;;;;;;5020003;28;20512;-76
2023/02/24 13:43:00;;;;;;;3.05;1.10;;;;;;;;;;5007193;28;20433;-76
2023/02/24 13:45:35;;;;;;;5.05;1.00;;;;;;;;;;5002369;28;20366;-75
2023/02/24 13:48:18;;;;;;;1.95;0.95;;;;;;;;;;4993649;28;20047;-77
2023/02/24 13:51:09;;;;;;;6.78;1.10;;;;;;;;;;5006978;28;20457;-75
2023/02/24 13:53:40;;;;;;;2.35;0.98;;;;;;;;;;5000056;28;20113;-75
2023/02/24 13:56:19;;;;;;;2.60;0.95;;;;;;;;;;5003001;28;20034;-75
2023/02/24 13:58:54;;;;;;;4.40;0.85;;;;;;;;;;5005647;28;20123;-74
2023/02/24 14:01:20;;;;;;;4.40;1.05;;;;;;;;;;4997599;28;20076;-75
2023/02/24 14:04:04;;;;;;;4.25;1.15;;;;;;;;;;5015615;28;20033;-74
2023/02/24 14:06:30;;;;;;;2.47;0.98;;;;;;;;;;5006560;28;20485;-74
2023/02/24 14:08:58;;;;;;;5.45;0.95;;;;;;;;;;4999751;28;20033;-75
2023/02/24 14:11:27;;;;;;;2.88;0.90;;;;;;;;;;5005452;28;20581;-75
2023/02/24 14:13:53;;;;;;;2.92;0.80;;;;;;;;;;5012755;28;20070;-75
2023/02/24 14:16:22;;;;;;;3.05;1.10;;;;;;;;;;5009768;28;20112;-75
2023/02/24 14:18:55;;;;;;;5.15;1.17;;;;;;;;;;5015584;28;20031;-76
2023/02/24 14:21:22;;;;;;;;;;;;;;;;;;5013281;28;20046;-74
2023/02/24 14:23:57;;;;;;;2.35;1.00;;;;;;;;;;5018598;28;19948;-75
2023/02/24 14:26:23;;;;;;;4.88;1.10;;;;;;;;;;5025047;28;20099;-74
2023/02/24 14:28:59;;;;;;;3.97;1.10;;;;;;;;;;5008227;28;20042;-75
2023/02/24 14:31:25;;;;;;;5.13;1.38;;;;;;;;;;5015465;28;20183;-74
2023/02/24 14:33:57;;;;;;;4.07;1.00;;;;;;;;;;5011827;28;20495;-75
2023/02/24 14:36:26;;;;;;;3.10;1.10;;;;;;;;;;5030715;28;20761;-74
2023/02/24 14:39:06;;;;;;;2.50;1.00;;;;;;;;;;5015602;28;20038;-74
2023/02/24 14:41:33;;;;;;;5.47;1.25;;;;;;;;;;5015268;28;20050;-74
2023/02/24 14:44:07;;;;;;;4.90;1.20;;;;;;;;;;5008259;28;20035;-75
2023/02/24 14:46:33;;;;;;;5.40;1.20;;;;;;;;;;5011657;28;20417;-75
2023/02/24 14:48:59;;;;;;;3.05;1.08;;;;;;;;;;5008474;28;20038;-75
2023/02/24 14:51:33;;;;;;;2.47;0.98;;;;;;;;;;5014526;28;20049;-74
2023/02/24 14:54:02;;;;;;;4.53;1.17;;;;;;;;;;5014848;28;20034;-74
2023/02/24 14:56:30;;;;;;;4.68;1.60;;;;;;;;;;5014659;28;20464;-74
2023/02/24 14:59:11;;;;;;;3.90;1.10;;;;;;;;;;5002187;28;20043;-74
2023/02/24 15:01:43;;;;;;;4.47;1.25;;;;;;;;;;4998970;28;20104;-75
2023/02/24 15:04:12;;;;;;;3.97;1.10;;;;;;;;;;4992147;28;20404;-76
2023/02/24 15:06:40;;;;;;;3.22;1.20;;;;;;;;;;5029817;28;20061;-75
2023/02/24 15:09:21;;;;;;;4.32;1.60;;;;;;;;;;5010864;28;20457;-74
2023/02/24 15:11:48;;;;;;;3.70;1.20;;;;;;;;;;5010668;28;20105;-74
2023/02/24 15:14:20;;;;;;;2.38;1.05;;;;;;;;;;5029405;28;20075;-74
2023/02/24 15:16:52;;;;;;;4.90;1.20;;;;;;;;;;5015006;28;20046;-75
2023/02/24 15:19:29;;;;;;;3.95;1.17;;;;;;;;;;5014892;28;20038;-74
2023/02/24 15:21:55;;;;;;;3.67;1.02;;;;;;;;;;4999548;28;20045;-74
2023/02/24 15:24:27;;;;;;;5.05;1.23;;;;;;;;;;5020011;28;20030;-74
2023/02/24 15:27:01;;;;;;;5.82;1.40;;;;;;;;;;5013500;28;20061;-75
2023/02/24 15:29:29;;;;;;;3.20;1.13;;;;;;;;;;5012623;28;20042;-75
2023/02/24 15:31:56;;;;;;;3.33;1.77;;;;;;;;;;5013282;28;20045;-75
2023/02/24 15:34:26;;;;;;;4.80;1.70;;;;;;;;;;5009222;28;20040;-75
2023/02/24 15:36:59;;;;;;;4.47;1.40;;;;;;;;;;5011033;28;20046;-75
2023/02/24 15:39:30;;;;;;;2.85;1.13;;;;;;;;;;5008948;28;20048;-75
2023/02/24 15:42:07;;;;;;;5.93;1.38;;;;;;;;;;5012624;28;20061;-75
2023/02/24 15:44:35;;;;;;;4.43;1.58;;;;;;;;;;5027520;28;20649;-74
2023/02/24 15:47:18;;;;;;;3.95;1.27;;;;;;;;;;5016388;28;20034;-74